Time;durP1;ratioP1;P1;durP2;ratioP2;P2;SDS_P1;SDS_P2;PMS_P1;PMS_P2;Temp;Humidity;BMP_temperature;BMP_pressure;BME280_temperature;BME280_humidity;BME280_pressure;Samples;Min_cycle;Max_cycle;Signal;HPM_P1;HPM_P2
2021/01/19 00:00:59;;;;;;;8.20;2.77;;;5.50;99.90;;;;;;6128097;23;20411;-91
2021/01/19 00:03:25;;;;;;;13.60;3.10;;;5.40;99.90;;;;;;6128042;23;20438;-91
2021/01/19 00:05:52;;;;;;;11.83;3.20;;;5.50;99.90;;;;;;6128409;23;20488;-91
2021/01/19 00:08:18;;;;;;;8.73;3.03;;;5.40;99.90;;;;;;6127753;23;20494;-89
2021/01/19 00:10:45;;;;;;;12.73;3.43;;;5.40;99.90;;;;;;6128641;23;20248;-89
2021/01/19 00:13:19;;;;;;;12.83;3.53;;;5.20;99.90;;;;;;6102486;23;20188;-91
2021/01/19 00:15:46;;;;;;;10.97;3.03;;;5.30;99.90;;;;;;6127475;23;20659;-90
2021/01/19 00:18:13;;;;;;;12.67;3.40;;;5.30;99.90;;;;;;6128186;23;20409;-92
2021/01/19 00:20:40;;;;;;;10.80;3.27;;;5.40;99.90;;;;;;6128223;23;20566;-91
2021/01/19 00:23:06;;;;;;;11.47;4.03;;;5.40;99.90;;;;;;6127498;23;20426;-93
2021/01/19 00:25:35;;;;;;;11.27;3.47;;;5.40;99.90;;;;;;6128915;23;20431;-91
2021/01/19 00:28:01;;;;;;;11.97;3.57;;;5.30;99.90;;;;;;6128026;23;20182;-88
2021/01/19 00:30:28;;;;;;;7.93;3.50;;;5.40;99.90;;;;;;6102275;23;20176;-90
2021/01/19 00:32:54;;;;;;;11.63;3.50;;;5.40;99.90;;;;;;6127867;23;20391;-91
2021/01/19 00:35:22;;;;;;;16.43;3.73;;;5.30;99.90;;;;;;6127462;23;20529;-89
2021/01/19 00:37:48;;;;;;;11.90;4.10;;;5.20;99.90;;;;;;6127404;23;20613;-91
2021/01/19 00:40:16;;;;;;;11.77;3.60;;;5.30;99.90;;;;;;6129035;23;20403;-92
2021/01/19 00:42:43;;;;;;;5.37;3.33;;;5.30;99.90;;;;;;6130128;23;20203;-90
2021/01/19 00:45:10;;;;;;;10.20;4.47;;;5.30;99.90;;;;;;6129952;23;20208;-90
2021/01/19 00:47:36;;;;;;;11.97;4.37;;;5.40;99.90;;;;;;6129809;23;20700;-91
2021/01/19 00:50:04;;;;;;;13.10;3.53;;;5.30;99.90;;;;;;6129854;23;20871;-89
2021/01/19 00:52:32;;;;;;;13.33;3.97;;;5.40;99.90;;;;;;6129580;23;20415;-91
2021/01/19 00:54:58;;;;;;;9.20;3.83;;;5.30;99.90;;;;;;6129445;23;20210;-89
2021/01/19 00:57:25;;;;;;;12.75;5.45;;;5.30;99.90;;;;;;6128523;23;20475;-91
2021/01/19 00:59:51;;;;;;;15.20;5.23;;;5.50;99.90;;;;;;6129810;23;20538;-88
2021/01/19 01:02:18;;;;;;;10.17;4.10;;;5.60;99.90;;;;;;6129611;23;20636;-89
2021/01/19 01:04:44;;;;;;;10.67;3.77;;;5.60;99.90;;;;;;6129756;23;20295;-89
2021/01/19 01:07:10;;;;;;;8.60;4.10;;;5.60;99.90;;;;;;6129224;23;20199;-88
2021/01/19 01:09:38;;;;;;;11.83;3.50;;;5.60;99.90;;;;;;6129191;23;20256;-90
2021/01/19 01:12:05;;;;;;;15.00;4.40;;;5.70;99.90;;;;;;6130629;23;20250;-89
2021/01/19 01:14:32;;;;;;;7.43;3.60;;;5.60;99.90;;;;;;6129374;23;20200;-91
2021/01/19 01:16:58;;;;;;;11.73;4.10;;;5.70;99.90;;;;;;6104511;23;20188;-90
2021/01/19 01:19:25;;;;;;;12.23;4.80;;;5.60;99.90;;;;;;6129992;23;20771;-89
2021/01/19 01:21:51;;;;;;;12.17;4.57;;;5.70;99.90;;;;;;6105206;23;20192;-90
2021/01/19 01:24:18;;;;;;;7.00;4.07;;;5.70;99.90;;;;;;6130059;23;20230;-90
2021/01/19 01:26:45;;;;;;;18.27;5.63;;;5.70;99.90;;;;;;6129820;23;20165;-91
2021/01/19 01:29:12;;;;;;;12.63;4.40;;;5.60;99.90;;;;;;6130768;23;20200;-90
2021/01/19 01:31:38;;;;;;;14.70;5.00;;;5.60;99.90;;;;;;6130897;23;20407;-90
2021/01/19 01:34:05;;;;;;;13.43;5.53;;;5.60;99.90;;;;;;6129840;23;20279;-92
2021/01/19 01:36:39;;;;;;;13.33;4.90;;;5.70;99.90;;;;;;6129203;23;20435;-89
2021/01/19 01:39:06;;;;;;;13.23;4.60;;;5.70;99.90;;;;;;6129932;23;20395;-91
2021/01/19 01:41:33;;;;;;;11.97;5.00;;;5.60;99.90;;;;;;6130017;23;20774;-90
2021/01/19 01:44:01;;;;;;;9.73;5.20;;;5.60;99.90;;;;;;6129133;23;20223;-91
2021/01/19 01:46:30;;;;;;;12.87;4.77;;;5.50;99.90;;;;;;6129687;23;20525;-91
2021/01/19 01:48:58;;;;;;;13.67;5.27;;;5.50;99.90;;;;;;6130211;23;20410;-89
2021/01/19 01:51:24;;;;;;;15.57;6.40;;;5.60;99.90;;;;;;6129055;23;20405;-89
2021/01/19 01:53:51;;;;;;;17.17;5.80;;;5.60;99.90;;;;;;6129103;23;20267;-90
2021/01/19 01:56:18;;;;;;;15.43;6.10;;;5.50;99.90;;;;;;6129298;23;20173;-90
2021/01/19 01:58:45;;;;;;;12.17;6.43;;;5.50;99.90;;;;;;6129563;23;20227;-89
2021/01/19 02:01:13;;;;;;;15.93;5.57;;;5.50;99.90;;;;;;6130394;23;20414;-91
2021/01/19 02:03:39;;;;;;;12.70;5.70;;;5.60;99.90;;;;;;6129251;23;20454;-91
2021/01/19 02:06:06;;;;;;;11.67;5.80;;;5.50;99.90;;;;;;6129478;23;20463;-91
2021/01/19 02:08:49;;;;;;;19.03;6.33;;;5.40;99.90;;;;;;6128932;23;20252;-90
2021/01/19 02:11:26;;;;;;;14.50;6.77;;;5.40;99.90;;;;;;6130178;23;20847;-90
2021/01/19 02:14:04;;;;;;;16.67;6.17;;;5.40;99.90;;;;;;6128961;23;20433;-91
2021/01/19 02:16:43;;;;;;;17.27;6.03;;;5.40;99.90;;;;;;6129049;23;20453;-89
2021/01/19 02:19:50;;;;;;;18.77;6.97;;;5.40;99.90;;;;;;6129614;23;20481;-90
2021/01/19 02:22:37;;;;;;;18.73;6.87;;;5.50;99.90;;;;;;6077473;23;20453;-92
2021/01/19 02:25:12;;;;;;;20.83;6.97;;;5.40;99.90;;;;;;6128387;23;20542;-89
2021/01/19 02:27:55;;;;;;;18.50;6.77;;;5.40;99.90;;;;;;6128564;23;20414;-90
2021/01/19 02:30:50;;;;;;;17.63;6.90;;;5.40;99.90;;;;;;6129257;23;20470;-89
2021/01/19 02:33:26;;;;;;;12.63;7.10;;;5.40;99.90;;;;;;6126807;23;20177;-91
2021/01/19 02:36:01;;;;;;;18.40;7.17;;;5.50;99.90;;;;;;6128929;23;20497;-91
2021/01/19 02:38:36;;;;;;;11.77;6.97;;;5.40;99.90;;;;;;6129122;23;20475;-91
2021/01/19 02:41:04;;;;;;;15.40;7.23;;;5.40;99.90;;;;;;6129115;23;20858;-89
2021/01/19 02:43:31;;;;;;;16.03;7.40;;;5.40;99.90;;;;;;6128763;23;20645;-89
2021/01/19 02:45:58;;;;;;;15.47;7.97;;;5.40;99.90;;;;;;6129275;23;20605;-91
2021/01/19 02:48:26;;;;;;;16.03;7.60;;;5.30;99.90;;;;;;6129352;23;20413;-89
2021/01/19 02:50:53;;;;;;;13.43;7.07;;;5.30;99.90;;;;;;6128826;23;20192;-88
2021/01/19 02:53:21;;;;;;;12.37;7.30;;;5.30;99.90;;;;;;6129075;23;20739;-92
2021/01/19 02:55:47;;;;;;;17.53;8.20;;;5.40;99.90;;;;;;6128730;23;20494;-89
2021/01/19 02:58:36;;;;;;;15.17;7.43;;;5.30;99.90;;;;;;6128532;23;20609;-90
2021/01/19 03:01:05;;;;;;;16.73;7.37;;;5.40;99.90;;;;;;6128102;23;20501;-90
2021/01/19 03:03:35;;;;;;;16.10;7.57;;;5.40;99.90;;;;;;6127759;23;20485;-90
2021/01/19 03:06:07;;;;;;;17.83;7.63;;;5.40;99.90;;;;;;6128645;23;20404;-90
2021/01/19 03:08:34;;;;;;;14.87;7.10;;;5.40;99.90;;;;;;6128172;23;20172;-90
2021/01/19 03:11:03;;;;;;;16.47;7.37;;;5.40;99.90;;;;;;6128596;23;20419;-90
2021/01/19 03:13:31;;;;;;;16.07;6.47;;;5.40;99.90;;;;;;6128869;23;20418;-89
2021/01/19 03:16:08;;;;;;;20.80;7.60;;;5.40;99.90;;;;;;6128645;23;20461;-87
2021/01/19 03:18:36;;;;;;;13.97;6.63;;;5.50;99.90;;;;;;6128074;23;20874;-88
2021/01/19 03:21:04;;;;;;;14.95;7.93;;;5.50;99.90;;;;;;6127288;23;20442;-89
2021/01/19 03:23:30;;;;;;;15.53;7.13;;;5.50;99.90;;;;;;6128334;23;20211;-91
2021/01/19 03:25:57;;;;;;;13.53;6.53;;;5.60;99.90;;;;;;6128599;23;20173;-90
2021/01/19 03:28:23;;;;;;;19.23;6.27;;;5.70;99.90;;;;;;6128952;23;20466;-89
2021/01/19 03:30:50;;;;;;;13.60;5.80;;;5.70;99.90;;;;;;6128648;23;20176;-92
2021/01/19 03:33:16;;;;;;;12.87;5.60;;;5.70;99.90;;;;;;6102583;23;20430;-91
2021/01/19 03:35:43;;;;;;;11.73;5.93;;;5.60;99.90;;;;;;6128003;23;20465;-88
2021/01/19 03:38:10;;;;;;;15.77;5.57;;;5.70;99.90;;;;;;6128019;23;20226;-91
2021/01/19 03:40:38;;;;;;;13.93;5.87;;;5.70;99.90;;;;;;6128000;23;20421;-91
2021/01/19 03:43:05;;;;;;;12.40;5.80;;;5.80;99.90;;;;;;6128169;23;20412;-89
2021/01/19 03:45:32;;;;;;;10.63;4.90;;;5.80;99.90;;;;;;6127639;23;20205;-88
2021/01/19 03:47:59;;;;;;;12.80;5.00;;;5.80;99.90;;;;;;6127526;23;20960;-89
2021/01/19 03:50:26;;;;;;;12.60;5.33;;;5.90;99.90;;;;;;6128640;23;20256;-90
2021/01/19 03:52:53;;;;;;;10.23;5.27;;;5.90;99.90;;;;;;6127984;23;20179;-89
2021/01/19 03:55:19;;;;;;;10.33;5.97;;;6.00;99.90;;;;;;6128281;23;20533;-89
2021/01/19 03:57:46;;;;;;;15.63;5.73;;;6.00;99.90;;;;;;6128367;23;20469;-89
2021/01/19 04:00:14;;;;;;;10.97;4.90;;;6.00;99.90;;;;;;6128645;23;20172;-89
2021/01/19 04:02:41;;;;;;;16.07;5.20;;;6.10;99.90;;;;;;6128104;23;20467;-88
2021/01/19 04:05:10;;;;;;;9.20;4.53;;;6.10;99.90;;;;;;6127935;23;20232;-88
2021/01/19 04:07:39;;;;;;;9.70;4.63;;;6.10;99.90;;;;;;6127974;23;20180;-89
2021/01/19 04:10:09;;;;;;;11.47;4.30;;;6.20;99.90;;;;;;6127520;23;20243;-88
2021/01/19 04:12:36;;;;;;;15.37;4.70;;;6.20;99.90;;;;;;6127971;23;20171;-89
2021/01/19 04:15:03;;;;;;;13.90;4.50;;;6.20;99.90;;;;;;6127057;23;20279;-91
2021/01/19 04:17:29;;;;;;;8.43;4.43;;;6.30;99.90;;;;;;6127891;23;20541;-90
2021/01/19 04:19:56;;;;;;;9.73;4.37;;;6.30;99.90;;;;;;6127958;23;20173;-89
2021/01/19 04:22:24;;;;;;;13.40;4.07;;;6.40;99.90;;;;;;6127206;23;20179;-90
2021/01/19 04:24:51;;;;;;;12.80;4.00;;;6.30;99.90;;;;;;6127526;23;20215;-88
2021/01/19 04:27:19;;;;;;;10.57;3.67;;;6.30;99.90;;;;;;6127356;23;20173;-89
2021/01/19 04:29:46;;;;;;;10.47;4.10;;;6.30;99.90;;;;;;6127952;23;20175;-89
2021/01/19 04:32:13;;;;;;;13.27;4.17;;;6.30;99.90;;;;;;6129065;23;20169;-89
2021/01/19 04:34:39;;;;;;;17.23;4.77;;;6.30;99.90;;;;;;6136430;23;20628;-90
2021/01/19 04:37:05;;;;;;;13.60;3.77;;;6.20;99.90;;;;;;6136880;23;20227;-88
2021/01/19 04:39:32;;;;;;;11.33;4.10;;;6.30;99.90;;;;;;6128706;23;20604;-89
2021/01/19 04:41:58;;;;;;;11.27;3.97;;;6.10;99.90;;;;;;6127476;23;20172;-89
2021/01/19 04:44:27;;;;;;;9.77;3.57;;;6.30;99.90;;;;;;6127728;23;20652;-89
2021/01/19 04:46:54;;;;;;;13.00;3.67;;;6.40;99.90;;;;;;6127946;23;20180;-89
2021/01/19 04:49:21;;;;;;;14.63;4.93;;;6.20;99.90;;;;;;6128357;23;20243;-90
2021/01/19 04:51:48;;;;;;;12.67;4.07;;;6.30;99.90;;;;;;6127461;23;20176;-89
2021/01/19 04:54:16;;;;;;;13.83;4.40;;;6.30;99.90;;;;;;6127715;23;20199;-92
2021/01/19 04:56:50;;;;;;;9.40;3.23;;;6.30;99.90;;;;;;6127870;23;20173;-89
2021/01/19 04:59:22;;;;;;;9.07;3.60;;;6.30;99.90;;;;;;6127503;23;20165;-91
2021/01/19 05:05:05;;;;;;;7.80;3.00;;;6.20;99.90;;;;;;6142664;23;20216;-86
2021/01/19 05:07:35;;;;;;;7.23;3.03;;;6.20;99.90;;;;;;6142758;23;20176;-86
2021/01/19 05:10:12;;;;;;;8.77;3.50;;;6.20;99.90;;;;;;6142166;23;20208;-86
2021/01/19 05:12:42;;;;;;;8.63;2.97;;;6.20;99.90;;;;;;6142909;23;20176;-86
2021/01/19 05:15:15;;;;;;;8.10;4.07;;;6.20;99.90;;;;;;6143526;23;20197;-87
2021/01/19 05:20:31;;;;;;;10.27;3.83;;;6.30;99.90;;;;;;6146340;23;20181;-86
2021/01/19 05:22:58;;;;;;;11.20;3.47;;;6.30;99.90;;;;;;6146505;23;20192;-86
2021/01/19 05:25:25;;;;;;;11.47;3.60;;;6.20;99.90;;;;;;6144700;23;20271;-86
2021/01/19 05:27:53;;;;;;;11.97;3.70;;;6.20;99.90;;;;;;6145171;23;20177;-86
2021/01/19 05:30:26;;;;;;;7.77;2.63;;;6.20;99.90;;;;;;6143793;23;20216;-86
2021/01/19 05:32:53;;;;;;;11.07;3.57;;;6.20;99.90;;;;;;6144732;23;20176;-86
2021/01/19 05:35:25;;;;;;;9.57;2.73;;;6.30;99.90;;;;;;6144969;23;20201;-86
2021/01/19 05:38:03;;;;;;;8.23;2.70;;;6.20;99.90;;;;;;6120484;23;20180;-86
2021/01/19 05:40:34;;;;;;;9.80;3.00;;;6.20;99.90;;;;;;6146103;23;20183;-86
2021/01/19 05:43:10;;;;;;;15.70;3.33;;;6.20;99.90;;;;;;6145790;23;20183;-86
2021/01/19 05:45:49;;;;;;;10.80;2.60;;;6.20;99.90;;;;;;6145185;23;20204;-86
2021/01/19 05:48:17;;;;;;;9.50;3.20;;;6.30;99.90;;;;;;6144712;23;20177;-87
2021/01/19 05:50:45;;;;;;;10.30;3.47;;;6.30;99.90;;;;;;6146459;23;20239;-86
2021/01/19 05:53:19;;;;;;;8.67;3.07;;;6.30;99.90;;;;;;6120340;23;20181;-87
2021/01/19 05:55:46;;;;;;;12.33;3.10;;;6.40;99.90;;;;;;6145678;23;20200;-87
2021/01/19 05:58:19;;;;;;;12.83;2.90;;;6.30;99.90;;;;;;6143259;23;20187;-86
2021/01/19 06:00:50;;;;;;;8.55;3.40;;;6.40;99.90;;;;;;6144858;23;20388;-86
2021/01/19 06:03:18;;;;;;;9.23;2.97;;;6.50;99.90;;;;;;6121773;23;20180;-87
2021/01/19 06:05:46;;;;;;;7.47;2.70;;;6.40;99.90;;;;;;6145060;23;20208;-86
2021/01/19 06:08:16;;;;;;;9.83;3.07;;;6.40;99.90;;;;;;6146479;23;20203;-87
2021/01/19 06:10:49;;;;;;;12.13;2.67;;;6.40;99.90;;;;;;6147517;23;20178;-86
2021/01/19 06:13:18;;;;;;;8.33;2.77;;;6.40;99.90;;;;;;6145836;23;20176;-86
2021/01/19 06:15:47;;;;;;;9.47;3.43;;;6.40;99.90;;;;;;6147339;23;20208;-86
2021/01/19 06:18:17;;;;;;;7.90;2.67;;;6.50;99.90;;;;;;6123177;23;20223;-86
2021/01/19 06:20:44;;;;;;;10.50;3.00;;;6.50;99.90;;;;;;6121544;23;20241;-86
2021/01/19 06:23:16;;;;;;;7.65;3.10;;;6.30;99.90;;;;;;6147372;23;20377;-86
2021/01/19 06:25:47;;;;;;;11.33;2.67;;;6.40;99.90;;;;;;6147710;23;20222;-87
2021/01/19 06:34:38;;;;;;;9.47;2.57;;;6.50;99.90;;;;;;6118157;23;20225;-87
2021/01/19 06:39:59;;;;;;;7.47;2.53;;;6.40;99.90;;;;;;6165603;23;20219;-87
2021/01/19 06:42:34;;;;;;;5.47;2.47;;;6.50;99.90;;;;;;6181482;23;20182;-88
2021/01/19 06:45:04;;;;;;;6.67;2.40;;;6.40;99.90;;;;;;6178956;23;20207;-87
2021/01/19 06:47:40;;;;;;;8.17;2.80;;;6.40;99.90;;;;;;6170708;23;20212;-87
2021/01/19 06:50:22;;;;;;;8.40;2.70;;;6.40;99.90;;;;;;6145941;23;20176;-86
2021/01/19 06:55:48;;;;;;;6.17;2.50;;;6.30;99.90;;;;;;6146951;23;20667;-86
2021/01/19 06:59:03;;;;;;;5.10;2.43;;;6.40;99.90;;;;;;6149121;23;20160;-86
2021/01/19 07:01:43;;;;;;;9.37;2.50;;;6.40;99.90;;;;;;6135804;23;20183;-85
2021/01/19 07:04:24;;;;;;;8.07;2.30;;;6.40;99.90;;;;;;6143759;23;20303;-85
2021/01/19 07:07:14;;;;;;;9.90;2.60;;;6.40;99.90;;;;;;6145091;23;20173;-85
2021/01/19 07:10:07;;;;;;;5.40;2.10;;;6.40;99.90;;;;;;6143273;23;20200;-84
2021/01/19 07:13:22;;;;;;;8.13;2.20;;;6.30;99.90;;;;;;6142342;23;20173;-85
2021/01/19 07:18:22;;;;;;;9.03;3.17;;;6.40;99.90;;;;;;6176623;23;20250;-86
2021/01/19 07:21:03;;;;;;;9.33;2.80;;;6.50;99.90;;;;;;6172778;23;20178;-85
2021/01/19 07:23:52;;;;;;;6.70;2.50;;;6.40;99.90;;;;;;6173893;23;20198;-85
2021/01/19 07:26:21;;;;;;;11.03;3.97;;;6.50;99.90;;;;;;6172994;23;20230;-85
2021/01/19 07:28:53;;;;;;;7.47;2.90;;;6.50;99.90;;;;;;6180069;23;20172;-87
2021/01/19 07:31:23;;;;;;;3.43;2.07;;;6.50;99.90;;;;;;6178414;23;20620;-86
2021/01/19 07:33:55;;;;;;;7.33;2.10;;;6.50;99.90;;;;;;6152148;23;20581;-86
2021/01/19 07:36:36;;;;;;;7.83;2.17;;;6.60;99.90;;;;;;6150737;23;20181;-87
2021/01/19 07:42:33;;;;;;;3.40;1.97;;;6.50;99.90;;;;;;6140939;23;20207;-86
2021/01/19 07:51:16;;;;;;;5.63;2.20;;;6.60;99.90;;;;;;6004891;23;20195;-87
2021/01/19 07:53:52;;;;;;;8.13;2.40;;;6.70;99.90;;;;;;6108091;23;20192;-87
2021/01/19 07:56:29;;;;;;;5.43;1.97;;;6.70;99.90;;;;;;6119741;23;20266;-87
2021/01/19 07:59:02;;;;;;;7.10;2.50;;;6.80;99.90;;;;;;6119530;23;20204;-87
2021/01/19 08:01:34;;;;;;;5.03;2.27;;;6.80;99.90;;;;;;6119837;23;20240;-87
2021/01/19 08:04:22;;;;;;;2.87;1.80;;;6.80;99.90;;;;;;6094375;23;20193;-87
2021/01/19 08:06:52;;;;;;;3.13;2.13;;;6.80;99.90;;;;;;6120280;23;20201;-86
2021/01/19 08:09:23;;;;;;;6.73;2.50;;;6.80;99.90;;;;;;6119237;23;20233;-87
2021/01/19 08:12:07;;;;;;;3.70;1.90;;;6.90;99.90;;;;;;6119022;23;20177;-87
2021/01/19 08:14:39;;;;;;;4.27;1.90;;;6.90;99.90;;;;;;6118176;23;20231;-87
2021/01/19 08:17:19;;;;;;;6.97;2.83;;;7.00;99.90;;;;;;6093132;23;20196;-86
2021/01/19 08:22:40;;;;;;;5.30;2.37;;;7.10;99.90;;;;;;6123735;23;20205;-87
2021/01/19 08:25:25;;;;;;;5.80;2.40;;;7.20;99.90;;;;;;6148163;23;20239;-86
2021/01/19 08:27:51;;;;;;;4.50;2.53;;;7.20;99.90;;;;;;6146567;23;20231;-87
2021/01/19 09:19:29;;;;;;;3.53;3.20;;;7.90;99.90;;;;;;6126176;23;20231;-87
2021/01/19 09:50:28;;;;;;;3.27;2.90;;;8.00;99.90;;;;;;6130161;23;20215;-87
2021/01/19 10:02:56;;;;;;;5.03;3.40;;;8.00;99.90;;;;;;6122132;23;20249;-87
2021/01/19 11:16:20;;;;;;;5.40;4.93;;;8.80;99.90;;;;;;6087162;23;20426;31
2021/01/19 14:34:10;;;;;;;10.07;8.60;;;9.70;99.90;;;;;;6137326;23;20208;-87
2021/01/19 15:03:09;;;;;;;9.47;8.33;;;9.30;99.90;;;;;;6155939;23;20772;-87
2021/01/19 15:18:29;;;;;;;7.07;6.37;;;9.10;99.90;;;;;;6137599;23;20208;-87
2021/01/19 17:02:18;;;;;;;11.83;7.30;;;8.40;99.90;;;;;;6076497;23;20610;31
2021/01/19 17:04:45;;;;;;;8.53;6.13;;;8.40;99.90;;;;;;6061778;23;20229;-88
2021/01/19 17:07:12;;;;;;;8.57;6.47;;;8.30;99.90;;;;;;6069264;23;20197;-90
2021/01/19 17:09:38;;;;;;;14.37;6.33;;;8.30;99.90;;;;;;6069582;23;20170;-91
2021/01/19 17:12:05;;;;;;;10.90;6.30;;;8.40;99.90;;;;;;6069275;23;20177;-91
2021/01/19 17:14:32;;;;;;;7.73;5.20;;;8.40;99.90;;;;;;6044446;23;20265;-89
2021/01/19 17:16:58;;;;;;;10.87;6.57;;;8.40;99.90;;;;;;6070150;23;20170;-91
2021/01/19 17:19:25;;;;;;;7.83;5.33;;;8.20;99.90;;;;;;6069918;23;20264;-90
2021/01/19 17:21:52;;;;;;;10.17;5.83;;;8.30;99.90;;;;;;6070293;23;20520;-90
2021/01/19 17:24:19;;;;;;;8.77;5.30;;;8.20;99.90;;;;;;6071949;23;20193;-91
2021/01/19 17:26:46;;;;;;;11.63;5.57;;;8.30;99.90;;;;;;6071666;23;20222;-89
2021/01/19 17:29:13;;;;;;;9.07;5.57;;;8.20;99.90;;;;;;6071923;23;20170;-90
2021/01/19 17:31:40;;;;;;;7.37;5.50;;;8.20;99.90;;;;;;6071177;23;20265;-92
2021/01/19 17:34:07;;;;;;;10.30;6.37;;;8.20;99.90;;;;;;6072792;23;20220;-91
2021/01/19 17:36:35;;;;;;;12.77;7.07;;;8.10;99.90;;;;;;6076744;23;20270;-90
2021/01/19 17:39:03;;;;;;;10.53;6.83;;;8.10;99.90;;;;;;6070848;23;20174;-91
2021/01/19 17:41:30;;;;;;;8.80;4.87;;;8.10;99.90;;;;;;6071557;23;20193;-90
2021/01/19 17:43:57;;;;;;;11.50;5.27;;;8.20;99.90;;;;;;6070886;23;20274;-91
2021/01/19 17:46:24;;;;;;;8.07;5.20;;;8.20;99.90;;;;;;6070749;23;20260;-90
2021/01/19 17:48:51;;;;;;;9.00;5.30;;;8.20;99.90;;;;;;6071705;23;20544;-90
2021/01/19 17:51:18;;;;;;;10.63;5.70;;;8.10;99.90;;;;;;6071247;23;20576;-91
2021/01/19 17:53:45;;;;;;;11.65;7.03;;;8.00;99.90;;;;;;6070002;23;20486;-92
2021/01/19 17:56:12;;;;;;;12.13;6.77;;;8.20;99.90;;;;;;6046551;23;20181;-91
2021/01/19 17:58:43;;;;;;;10.30;6.30;;;8.20;99.90;;;;;;6071089;23;20245;-89
2021/01/19 18:01:10;;;;;;;10.37;6.03;;;8.10;99.90;;;;;;6071237;23;20177;-90
2021/01/19 18:03:36;;;;;;;12.90;7.03;;;8.00;99.90;;;;;;6071833;23;20232;-89
2021/01/19 18:06:03;;;;;;;13.77;6.13;;;7.90;99.90;;;;;;6070885;23;20280;-90
2021/01/19 18:08:30;;;;;;;9.90;6.73;;;7.90;99.90;;;;;;6071003;23;20693;-91
2021/01/19 18:10:56;;;;;;;11.37;6.27;;;7.90;99.90;;;;;;6071557;23;20178;-91
2021/01/19 18:13:23;;;;;;;8.23;6.40;;;7.90;99.90;;;;;;6070877;23;20198;-89
2021/01/19 18:15:50;;;;;;;9.70;6.47;;;7.80;99.90;;;;;;6071276;23;20346;-90
2021/01/19 18:18:17;;;;;;;10.27;6.10;;;7.80;99.90;;;;;;6072530;23;20249;-89
2021/01/19 18:20:43;;;;;;;10.53;6.20;;;7.80;99.90;;;;;;6074191;23;20174;-90
2021/01/19 18:23:10;;;;;;;12.57;5.90;;;7.70;99.90;;;;;;6073160;23;20565;-91
2021/01/19 18:25:36;;;;;;;10.80;6.03;;;7.60;99.90;;;;;;6071145;23;20225;-91
2021/01/19 18:28:03;;;;;;;10.00;5.70;;;7.70;99.90;;;;;;6077644;23;20238;-89
2021/01/19 18:30:32;;;;;;;6.33;4.93;;;7.70;99.90;;;;;;6076421;23;20253;-90
2021/01/19 18:32:58;;;;;;;13.67;5.40;;;7.70;99.90;;;;;;6070958;23;20182;-90
2021/01/19 18:35:29;;;;;;;8.30;5.23;;;7.60;99.90;;;;;;6069981;23;20197;-92
2021/01/19 18:38:00;;;;;;;7.77;5.33;;;7.50;99.90;;;;;;6071061;23;20659;-90
2021/01/19 18:40:26;;;;;;;9.97;5.37;;;7.60;99.90;;;;;;6071008;23;20228;-90
2021/01/19 18:42:53;;;;;;;11.33;5.73;;;7.50;99.90;;;;;;6079827;23;20272;-90
2021/01/19 18:45:20;;;;;;;8.07;5.70;;;7.50;99.90;;;;;;6072232;23;20333;-90
2021/01/19 18:47:47;;;;;;;10.30;6.27;;;7.40;99.90;;;;;;6070339;23;20181;-90
2021/01/19 18:50:14;;;;;;;9.00;6.40;;;7.50;99.90;;;;;;6070291;23;20174;-91
2021/01/19 18:52:40;;;;;;;12.30;6.17;;;7.40;99.90;;;;;;6070700;23;20250;-90
2021/01/19 18:55:07;;;;;;;7.53;6.60;;;7.60;99.90;;;;;;6069968;23;20214;-90
2021/01/19 18:57:34;;;;;;;9.43;5.80;;;7.60;99.90;;;;;;6070109;23;20252;-90
2021/01/19 19:00:00;;;;;;;6.33;5.70;;;7.60;99.90;;;;;;6070873;23;20253;-90
2021/01/19 19:02:27;;;;;;;9.23;6.00;;;7.60;99.90;;;;;;6070827;23;20228;-92
2021/01/19 19:04:54;;;;;;;9.10;6.83;;;7.60;99.90;;;;;;6069398;23;20209;-92
2021/01/19 19:07:21;;;;;;;9.10;6.07;;;7.60;99.90;;;;;;6070491;23;20602;-91
2021/01/19 19:09:47;;;;;;;7.97;6.03;;;7.60;99.90;;;;;;6070647;23;20204;-91
2021/01/19 19:12:14;;;;;;;9.03;5.40;;;7.60;99.90;;;;;;6069504;23;20185;-90
2021/01/19 19:14:40;;;;;;;9.63;5.60;;;7.70;99.90;;;;;;6070055;23;20230;-92
2021/01/19 19:17:06;;;;;;;10.13;6.27;;;7.80;99.90;;;;;;6070497;23;20689;-91
2021/01/19 19:19:33;;;;;;;5.63;4.93;;;7.70;99.90;;;;;;6070154;23;20169;-92
2021/01/19 19:22:00;;;;;;;8.20;6.00;;;7.60;99.90;;;;;;6070006;23;20178;-92
2021/01/19 19:24:27;;;;;;;12.97;5.80;;;7.60;99.90;;;;;;6070493;23;20194;-92
2021/01/19 19:26:53;;;;;;;7.87;5.50;;;7.60;99.90;;;;;;6070562;23;20178;-91
2021/01/19 19:29:20;;;;;;;8.53;5.43;;;7.50;99.90;;;;;;6070468;23;20209;-91
2021/01/19 19:31:47;;;;;;;6.33;5.70;;;7.50;99.90;;;;;;6070204;23;20348;-91
2021/01/19 19:34:14;;;;;;;9.53;5.60;;;7.50;99.90;;;;;;6070041;23;20194;-92
2021/01/19 19:36:40;;;;;;;8.30;6.60;;;7.50;99.90;;;;;;6070385;23;20249;-91
2021/01/19 19:39:09;;;;;;;11.13;6.37;;;7.60;99.90;;;;;;6070702;23;20204;-92
2021/01/19 19:41:38;;;;;;;10.90;6.40;;;7.60;99.90;;;;;;6069929;23;20204;-91
2021/01/19 19:44:06;;;;;;;10.50;6.47;;;7.50;99.90;;;;;;6069959;23;20568;-92
2021/01/19 19:46:33;;;;;;;9.00;5.97;;;7.50;99.90;;;;;;6070736;23;20218;-92
2021/01/19 19:48:59;;;;;;;11.30;7.70;;;7.50;99.90;;;;;;6069539;23;20170;-92
2021/01/19 19:51:28;;;;;;;7.57;6.60;;;7.60;99.90;;;;;;6070106;23;20174;-92
2021/01/19 19:53:54;;;;;;;9.73;6.50;;;7.70;99.90;;;;;;6069734;23;20194;-91
2021/01/19 19:56:23;;;;;;;11.07;6.30;;;7.60;99.90;;;;;;6070757;23;20212;-91
2021/01/19 19:58:49;;;;;;;12.83;6.60;;;7.50;99.90;;;;;;6069924;23;20249;-89
2021/01/19 20:01:17;;;;;;;9.83;5.90;;;7.60;99.90;;;;;;6069512;23;20249;-91
2021/01/19 20:03:43;;;;;;;11.17;6.63;;;7.60;99.90;;;;;;6044256;23;20210;-90
2021/01/19 20:06:10;;;;;;;9.33;5.53;;;7.50;99.90;;;;;;6069377;23;20205;-91
2021/01/19 20:08:36;;;;;;;10.70;6.47;;;7.60;99.90;;;;;;6069566;23;20174;-90
2021/01/19 20:11:03;;;;;;;8.60;5.50;;;7.60;99.90;;;;;;6045062;23;20209;-91
2021/01/19 20:13:31;;;;;;;10.27;6.20;;;7.60;99.90;;;;;;6071057;23;20540;-90
2021/01/19 20:15:57;;;;;;;9.73;6.20;;;7.60;99.90;;;;;;6069608;23;20174;-90
2021/01/19 20:18:24;;;;;;;12.80;6.50;;;7.60;99.90;;;;;;6070679;23;20545;-93
2021/01/19 20:20:53;;;;;;;8.70;5.33;;;7.60;99.90;;;;;;6070107;23;20178;-90
2021/01/19 20:23:22;;;;;;;11.50;6.53;;;7.60;99.90;;;;;;6071009;23;20249;-92
2021/01/19 20:25:48;;;;;;;9.60;6.50;;;7.60;99.90;;;;;;6069797;23;20236;-92
2021/01/19 20:28:16;;;;;;;11.67;6.00;;;7.60;99.90;;;;;;6071467;23;20248;-91
2021/01/19 20:30:43;;;;;;;10.33;5.90;;;7.60;99.90;;;;;;6073093;23;20174;-90
2021/01/19 20:33:12;;;;;;;9.73;6.50;;;7.50;99.90;;;;;;6071016;23;20177;-91
2021/01/19 20:35:39;;;;;;;7.83;5.97;;;7.60;99.90;;;;;;6073544;23;20277;-91
2021/01/19 20:38:06;;;;;;;12.87;6.60;;;7.60;99.90;;;;;;6076752;23;20178;-92
2021/01/19 20:40:32;;;;;;;11.97;6.47;;;7.60;99.90;;;;;;6078820;23;20178;-92
2021/01/19 20:42:59;;;;;;;10.13;5.77;;;7.50;99.90;;;;;;6079523;23;20197;-91
2021/01/19 20:45:25;;;;;;;12.60;6.17;;;7.60;99.90;;;;;;6079181;23;20226;-91
2021/01/19 20:47:55;;;;;;;11.90;5.90;;;7.60;99.90;;;;;;6078404;23;20229;-92
2021/01/19 20:50:21;;;;;;;8.63;6.50;;;7.70;99.90;;;;;;6079044;23;20193;-91
2021/01/19 20:52:48;;;;;;;11.47;6.50;;;7.70;99.90;;;;;;6074523;23;20178;-92
2021/01/19 20:55:15;;;;;;;10.40;6.63;;;7.70;99.90;;;;;;6073094;23;20201;-92
2021/01/19 20:57:45;;;;;;;7.67;6.20;;;7.70;99.90;;;;;;6075529;23;20181;-92
2021/01/19 21:00:16;;;;;;;10.53;7.00;;;7.70;99.90;;;;;;6074003;23;20266;-92
2021/01/19 21:02:42;;;;;;;10.20;6.27;;;7.70;99.90;;;;;;6073185;23;20264;-92
2021/01/19 21:05:12;;;;;;;15.43;6.20;;;7.70;99.90;;;;;;6073174;23;20610;-90
2021/01/19 21:07:39;;;;;;;8.50;5.90;;;7.80;99.90;;;;;;6074731;23;20184;-91
2021/01/19 21:10:06;;;;;;;8.20;6.13;;;7.70;99.90;;;;;;6075025;23;20193;-92
2021/01/19 21:12:33;;;;;;;8.20;6.43;;;7.80;99.90;;;;;;6074633;23;20230;-91
2021/01/19 21:14:59;;;;;;;9.33;6.77;;;7.70;99.90;;;;;;6072208;23;20221;-92
2021/01/19 21:17:26;;;;;;;10.27;5.97;;;7.70;99.90;;;;;;6073087;23;20698;-91
2021/01/19 21:19:52;;;;;;;7.47;5.63;;;7.80;99.90;;;;;;6071210;23;20178;-92
2021/01/19 21:22:19;;;;;;;9.60;6.10;;;7.70;99.90;;;;;;6071900;23;20174;-91
2021/01/19 21:24:46;;;;;;;10.30;6.17;;;7.80;99.90;;;;;;6071532;23;20284;-91
2021/01/19 21:27:14;;;;;;;9.43;6.37;;;7.80;99.90;;;;;;6071441;23;20662;-91
2021/01/19 21:29:41;;;;;;;10.27;6.27;;;7.70;99.90;;;;;;6070931;23;20673;-89
2021/01/19 21:32:11;;;;;;;8.33;5.73;;;7.80;99.90;;;;;;6046161;23;20178;-90
2021/01/19 21:34:39;;;;;;;9.00;6.10;;;7.80;99.90;;;;;;6071253;23;20285;-91
2021/01/19 21:37:06;;;;;;;7.40;6.00;;;7.70;99.90;;;;;;6070539;23;20184;-89
2021/01/19 21:39:33;;;;;;;9.40;6.10;;;7.80;99.90;;;;;;6071023;23;20178;-90
2021/01/19 21:41:59;;;;;;;10.63;6.47;;;7.80;99.90;;;;;;6071642;23;20182;-91
2021/01/19 21:44:25;;;;;;;11.77;5.97;;;7.70;99.90;;;;;;6071143;23;20194;-90
2021/01/19 21:46:52;;;;;;;8.73;6.50;;;7.70;99.90;;;;;;6070780;23;20173;-91
2021/01/19 21:49:19;;;;;;;13.30;7.00;;;7.70;99.90;;;;;;6071036;23;20221;-90